Flight Track Log - Related Links

Times and Time Zones

All times are in EDT time to prevent confusion due to time zone crossing. See the N6PZ flight status page for this flight to view local times or setup timezone preferences in your user account.

Time Position Orientation Groundspeed Altitude Reporting Facility
EDT Latitude Longitude Course Direction KTS MPH feet Rate Location/Type
Sat 14:03:57 42.4500 -71.5333 360° North 106 122 2,300  Level KA90
Sat 14:04:16 42.4500 -71.5333 180° South 106 122 2,400 456 Climbing KA90
Sat 14:05:16 42.4167 -71.5333 180° South 123 142 2,900 300 Climbing KA90
Sat 14:06:16 42.3833 -71.5333 180° South 125 144 3,000 194 Climbing KA90
Sat 14:07:20 42.3406 -71.5244 171° South 148 170 3,300 496 Climbing Boston Center
Sat 14:08:17 42.3111 -71.5025 151° Southeast 133 153 4,000 763 Climbing Boston Center
Sat 14:09:18 42.2775 -71.4806 154° Southeast 130 150 4,800 689 Climbing Boston Center
Sat 14:10:19 42.2419 -71.4558 153° Southeast 137 158 5,400 574 Climbing Boston Center
Sat 14:11:13 42.2044 -71.4508 174° South 170 196 5,900 672 Climbing Boston Center
Sat 14:12:15 42.1983 -71.4956 260° West 114 131 6,700 750 Climbing Boston Center
Sat 14:13:21 42.1967 -71.5461 267° West 119 137 7,500 645 Climbing Boston Center
Sat 14:14:16 42.1972 -71.5853 271° West 117 135 8,000 327 Climbing Boston Center
Sat 14:15:11 42.1994 -71.6331 274° West 145 167 8,100  Climbing Boston Center
Sat 14:15:35 42.1956 -71.6556 257° West 155 178 8,000 -71 Descending Boston Center
Sat 14:16:36 42.1814 -71.7144 252° West 154 177 8,000  Level Boston Center
Sat 14:17:37 42.1669 -71.7678 250° West 154 177 8,000  Level Boston Center
Sat 14:18:43 42.1403 -71.8158 233° Southwest 168 193 8,000  Level Boston Center
Sat 14:19:37 42.1028 -71.8244 190° South 164 189 8,000  Level Boston Center
Sat 14:20:38 42.0569 -71.8417 196° South 164 189 8,000  Level Boston Center
Sat 14:21:41 42.0133 -71.8533 191° South 161 185 8,000  Level Boston Center
Sat 14:22:52 41.9592 -71.8706 193° South 161 185 8,000  Level Boston Center
Sat 14:23:43 41.9217 -71.8819 193° South 162 186 8,000  Level Boston Center
Sat 14:24:55 41.8678 -71.8992 193° South 164 189 8,000  Level Boston Center
Sat 14:25:50 41.8281 -71.9108 192° South 165 190 8,000  Level Boston Center
Sat 14:26:51 41.7844 -71.9278 196° South 160 184 8,000  Level Boston Center
Sat 14:27:58 41.7344 -71.9450 194° South 165 190 8,000  Level Boston Center
Sat 14:28:58 41.6908 -71.9564 191° South 161 185 8,000  Level Boston Center
Sat 14:30:05 41.6450 -71.9733 195° South 165 190 8,000  Level Boston Center
Sat 14:31:00 41.6056 -71.9875 195° South 156 180 8,000  Level Boston Center
Sat 14:31:48 41.5681 -71.9961 190° South 161 185 8,000  Level Boston Center
Sat 14:32:49 41.5264 -72.0103 194° South 159 183 8,000  Level Boston Center
Sat 14:33:49 41.4806 -72.0189 188° South 161 185 8,000 -150 Level Boston Center
Sat 14:34:49 41.4389 -72.0275 189° South 156 180 7,700 -545 Descending Boston Center
Sat 14:35:50 41.3869 -72.0417 192° South 185 213 6,900 -738 Descending Boston Center
Sat 14:36:51 41.3328 -72.0558 191° South 185 213 6,200 -292 Descending Boston Center
Sat 14:38:55 41.2333 -72.0833 192° South 166 191 6,000 -359 Descending New York TRACON
Sat 14:39:55 41.1833 -72.1000 194° South 186 214 5,100 -900 Descending New York TRACON
Sat 14:41:00 41.1559 -72.1471 201° Southwest  Level FlightAware Approximate
Sat 14:48:00 40.9594 -72.2517 217° Southwest  Level Estimated
Sat 14:49:00 40.9594 -72.2517 56° Northeast  Level Estimated
Sat 14:50:00 40.9594 -72.2517 172° South  Level Estimated
Sat 14:51:00 40.9594 -72.2517 56° Northeast  Level Estimated

Login

Don't have an account? Register now (free) for customized features, flight alerts, and more!